X  Sluiten METAR luchtvaart weer gegevens      EHAM Amsterdam Airport Schiphol
Temperatuur
15°C Temperatuur
12°C Dauwpunt
82% Vochtigheid



Wind
26 KM/U
16 MPH
7 M/S
14 KTS



180°
Zuid
Huidig weer

Wat bewolking Wat bewolking
Luchtdruk 1005.92 (hPa) - 29.7 (inHg)
Zicht 6.2 (mijl) - 10 (km)
Vliegveld
Vliegveld code EHAM

Locatie : Amsterdam Airport Schiphol
Afstand: 2 (km)

Metar:
EHAM 241525Z 18014KT 9999 FEW017 BKN028 15/12 Q1006 NOSIG

Tijd: 24-10-2020 17:25 CET